sensor_id;sensor_type;location;lat;lon;timestamp;temperature;humidity
8400;DHT22;4237;47.030;15.396;2022-09-01T00:00:10;15.50;99.90
8400;DHT22;4237;47.030;15.396;2022-09-01T00:02:41;15.50;99.90
8400;DHT22;4237;47.030;15.396;2022-09-01T00:05:11;15.50;99.90
8400;DHT22;4237;47.030;15.396;2022-09-01T00:07:40;15.50;99.90
8400;DHT22;4237;47.030;15.396;2022-09-01T00:10:09;15.50;99.90
8400;DHT22;4237;47.030;15.396;2022-09-01T00:12:38;15.50;99.90
8400;DHT22;4237;47.030;15.396;2022-09-01T00:15:09;15.50;99.90
8400;DHT22;4237;47.030;15.396;2022-09-01T00:17:38;15.50;99.90
8400;DHT22;4237;47.030;15.396;2022-09-01T00:20:08;15.40;99.90
8400;DHT22;4237;47.030;15.396;2022-09-01T00:22:37;15.40;99.90
8400;DHT22;4237;47.030;15.396;2022-09-01T00:25:06;15.40;99.90
8400;DHT22;4237;47.030;15.396;2022-09-01T00:27:35;15.40;99.90
8400;DHT22;4237;47.030;15.396;2022-09-01T00:30:05;15.40;99.90
8400;DHT22;4237;47.030;15.396;2022-09-01T00:32:34;15.50;99.90
8400;DHT22;4237;47.030;15.396;2022-09-01T00:35:04;15.50;99.90
8400;DHT22;4237;47.030;15.396;2022-09-01T00:37:33;15.50;99.90
8400;DHT22;4237;47.030;15.396;2022-09-01T00:40:02;15.50;99.90
8400;DHT22;4237;47.030;15.396;2022-09-01T00:42:31;15.40;99.90
8400;DHT22;4237;47.030;15.396;2022-09-01T00:44:59;15.40;99.90
8400;DHT22;4237;47.030;15.396;2022-09-01T00:47:28;15.40;99.90
8400;DHT22;4237;47.030;15.396;2022-09-01T00:49:57;15.30;99.90
8400;DHT22;4237;47.030;15.396;2022-09-01T00:52:34;15.30;99.90
8400;DHT22;4237;47.030;15.396;2022-09-01T00:55:09;15.20;99.90
8400;DHT22;4237;47.030;15.396;2022-09-01T00:57:39;15.20;99.90
8400;DHT22;4237;47.030;15.396;2022-09-01T01:00:15;15.20;99.90
8400;DHT22;4237;47.030;15.396;2022-09-01T01:02:41;15.20;99.90
8400;DHT22;4237;47.030;15.396;2022-09-01T01:05:12;15.10;99.90
8400;DHT22;4237;47.030;15.396;2022-09-01T01:07:43;15.10;99.90
8400;DHT22;4237;47.030;15.396;2022-09-01T01:10:16;15.20;99.90
8400;DHT22;4237;47.030;15.396;2022-09-01T01:12:45;15.20;99.90
8400;DHT22;4237;47.030;15.396;2022-09-01T01:15:16;15.20;99.90
8400;DHT22;4237;47.030;15.396;2022-09-01T01:17:44;15.10;99.90
8400;DHT22;4237;47.030;15.396;2022-09-01T01:20:14;15.20;99.90
8400;DHT22;4237;47.030;15.396;2022-09-01T01:25:52;15.20;99.90
8400;DHT22;4237;47.030;15.396;2022-09-01T01:28:35;15.20;99.90
8400;DHT22;4237;47.030;15.396;2022-09-01T01:33:42;15.20;99.90
8400;DHT22;4237;47.030;15.396;2022-09-01T01:36:13;15.10;99.90
8400;DHT22;4237;47.030;15.396;2022-09-01T01:38:45;15.10;99.90
8400;DHT22;4237;47.030;15.396;2022-09-01T01:41:15;15.10;99.90
8400;DHT22;4237;47.030;15.396;2022-09-01T01:43:47;15.10;99.90
8400;DHT22;4237;47.030;15.396;2022-09-01T01:46:18;15.10;99.90
8400;DHT22;4237;47.030;15.396;2022-09-01T01:48:47;15.10;99.90
8400;DHT22;4237;47.030;15.396;2022-09-01T01:51:18;15.10;99.90
8400;DHT22;4237;47.030;15.396;2022-09-01T01:53:49;15.10;99.90
8400;DHT22;4237;47.030;15.396;2022-09-01T01:56:21;15.10;99.90
8400;DHT22;4237;47.030;15.396;2022-09-01T01:58:55;15.10;99.90
8400;DHT22;4237;47.030;15.396;2022-09-01T02:01:27;15.10;99.90
8400;DHT22;4237;47.030;15.396;2022-09-01T02:03:58;15.10;99.90
8400;DHT22;4237;47.030;15.396;2022-09-01T02:06:27;15.10;99.90
8400;DHT22;4237;47.030;15.396;2022-09-01T02:08:57;15.10;99.90
8400;DHT22;4237;47.030;15.396;2022-09-01T02:11:27;15.10;99.90
8400;DHT22;4237;47.030;15.396;2022-09-01T02:13:56;15.10;99.90
8400;DHT22;4237;47.030;15.396;2022-09-01T02:16:27;15.10;99.90
8400;DHT22;4237;47.030;15.396;2022-09-01T02:18:55;15.10;99.90
8400;DHT22;4237;47.030;15.396;2022-09-01T02:21:25;15.10;99.90
8400;DHT22;4237;47.030;15.396;2022-09-01T02:23:57;15.10;99.90
8400;DHT22;4237;47.030;15.396;2022-09-01T02:26:31;15.10;99.90
8400;DHT22;4237;47.030;15.396;2022-09-01T02:29:02;15.00;99.90
8400;DHT22;4237;47.030;15.396;2022-09-01T02:31:34;15.00;99.90
8400;DHT22;4237;47.030;15.396;2022-09-01T02:34:06;15.00;99.90
8400;DHT22;4237;47.030;15.396;2022-09-01T02:36:43;14.90;99.90
8400;DHT22;4237;47.030;15.396;2022-09-01T02:39:10;15.00;99.90
8400;DHT22;4237;47.030;15.396;2022-09-01T02:41:38;14.90;99.90
8400;DHT22;4237;47.030;15.396;2022-09-01T02:44:08;14.90;99.90
8400;DHT22;4237;47.030;15.396;2022-09-01T02:46:40;14.90;99.90
8400;DHT22;4237;47.030;15.396;2022-09-01T02:49:15;14.90;99.90
8400;DHT22;4237;47.030;15.396;2022-09-01T02:51:48;14.90;99.90
8400;DHT22;4237;47.030;15.396;2022-09-01T02:54:20;14.90;99.90
8400;DHT22;4237;47.030;15.396;2022-09-01T02:56:52;14.90;99.90
8400;DHT22;4237;47.030;15.396;2022-09-01T02:59:23;14.90;99.90
8400;DHT22;4237;47.030;15.396;2022-09-01T03:01:53;14.90;99.90
8400;DHT22;4237;47.030;15.396;2022-09-01T03:04:23;14.90;99.90
8400;DHT22;4237;47.030;15.396;2022-09-01T03:06:53;14.80;99.90
8400;DHT22;4237;47.030;15.396;2022-09-01T03:09:24;14.80;99.90
8400;DHT22;4237;47.030;15.396;2022-09-01T03:11:53;14.80;99.90
8400;DHT22;4237;47.030;15.396;2022-09-01T03:14:23;14.70;99.90
8400;DHT22;4237;47.030;15.396;2022-09-01T03:16:52;14.70;99.90
8400;DHT22;4237;47.030;15.396;2022-09-01T03:19:21;14.70;99.90
8400;DHT22;4237;47.030;15.396;2022-09-01T03:21:49;14.60;99.90
8400;DHT22;4237;47.030;15.396;2022-09-01T03:24:18;14.60;99.90
8400;DHT22;4237;47.030;15.396;2022-09-01T03:26:50;14.60;99.90
8400;DHT22;4237;47.030;15.396;2022-09-01T03:29:19;14.50;99.90
8400;DHT22;4237;47.030;15.396;2022-09-01T03:31:48;14.40;99.90
8400;DHT22;4237;47.030;15.396;2022-09-01T03:34:17;14.40;99.90
8400;DHT22;4237;47.030;15.396;2022-09-01T03:36:47;14.30;99.90
8400;DHT22;4237;47.030;15.396;2022-09-01T03:39:19;14.20;99.90
8400;DHT22;4237;47.030;15.396;2022-09-01T03:41:47;14.20;99.90
8400;DHT22;4237;47.030;15.396;2022-09-01T03:44:16;14.20;99.90
8400;DHT22;4237;47.030;15.396;2022-09-01T03:46:45;14.20;99.90
8400;DHT22;4237;47.030;15.396;2022-09-01T03:49:13;14.20;99.90
8400;DHT22;4237;47.030;15.396;2022-09-01T03:51:44;14.30;99.90
8400;DHT22;4237;47.030;15.396;2022-09-01T03:54:12;14.20;99.90
8400;DHT22;4237;47.030;15.396;2022-09-01T03:56:41;14.20;99.90
8400;DHT22;4237;47.030;15.396;2022-09-01T03:59:11;14.20;99.90
8400;DHT22;4237;47.030;15.396;2022-09-01T04:01:42;14.10;99.90
8400;DHT22;4237;47.030;15.396;2022-09-01T04:04:11;14.10;99.90
8400;DHT22;4237;47.030;15.396;2022-09-01T04:06:44;14.00;99.90
8400;DHT22;4237;47.030;15.396;2022-09-01T04:09:13;14.00;99.90
8400;DHT22;4237;47.030;15.396;2022-09-01T04:11:42;14.00;99.90
8400;DHT22;4237;47.030;15.396;2022-09-01T04:14:13;14.00;99.90
8400;DHT22;4237;47.030;15.396;2022-09-01T04:16:43;14.10;99.90
8400;DHT22;4237;47.030;15.396;2022-09-01T04:19:34;14.10;99.90
8400;DHT22;4237;47.030;15.396;2022-09-01T04:22:06;14.20;99.90
8400;DHT22;4237;47.030;15.396;2022-09-01T04:24:34;14.20;99.90
8400;DHT22;4237;47.030;15.396;2022-09-01T04:27:03;14.10;99.90
8400;DHT22;4237;47.030;15.396;2022-09-01T04:29:33;14.10;99.90
8400;DHT22;4237;47.030;15.396;2022-09-01T04:32:05;14.10;99.90
8400;DHT22;4237;47.030;15.396;2022-09-01T04:34:35;14.10;99.90
8400;DHT22;4237;47.030;15.396;2022-09-01T04:37:12;14.10;99.90
8400;DHT22;4237;47.030;15.396;2022-09-01T04:39:42;14.20;99.90
8400;DHT22;4237;47.030;15.396;2022-09-01T04:42:12;14.20;99.90
8400;DHT22;4237;47.030;15.396;2022-09-01T04:44:42;14.30;99.90
8400;DHT22;4237;47.030;15.396;2022-09-01T04:47:13;14.30;99.90
8400;DHT22;4237;47.030;15.396;2022-09-01T04:49:44;14.30;99.90
8400;DHT22;4237;47.030;15.396;2022-09-01T04:52:14;14.40;99.90
8400;DHT22;4237;47.030;15.396;2022-09-01T04:54:43;14.50;99.90
8400;DHT22;4237;47.030;15.396;2022-09-01T04:57:12;14.50;99.90
8400;DHT22;4237;47.030;15.396;2022-09-01T04:59:40;14.60;99.90
8400;DHT22;4237;47.030;15.396;2022-09-01T05:02:09;14.70;99.90
8400;DHT22;4237;47.030;15.396;2022-09-01T05:04:38;14.80;99.90
8400;DHT22;4237;47.030;15.396;2022-09-01T05:07:09;14.90;99.90
8400;DHT22;4237;47.030;15.396;2022-09-01T05:09:40;15.00;99.90
8400;DHT22;4237;47.030;15.396;2022-09-01T05:12:09;15.10;99.90
8400;DHT22;4237;47.030;15.396;2022-09-01T05:14:44;15.10;99.90
8400;DHT22;4237;47.030;15.396;2022-09-01T05:17:15;15.10;99.90
8400;DHT22;4237;47.030;15.396;2022-09-01T05:19:46;15.20;99.90
8400;DHT22;4237;47.030;15.396;2022-09-01T05:22:17;15.20;99.90
8400;DHT22;4237;47.030;15.396;2022-09-01T05:24:47;15.30;99.90
8400;DHT22;4237;47.030;15.396;2022-09-01T05:27:18;15.30;99.90
8400;DHT22;4237;47.030;15.396;2022-09-01T05:29:47;15.40;99.90
8400;DHT22;4237;47.030;15.396;2022-09-01T05:32:16;15.50;99.90
8400;DHT22;4237;47.030;15.396;2022-09-01T05:34:45;15.70;99.90
8400;DHT22;4237;47.030;15.396;2022-09-01T05:37:16;15.90;99.90
8400;DHT22;4237;47.030;15.396;2022-09-01T05:39:44;16.10;99.90
8400;DHT22;4237;47.030;15.396;2022-09-01T05:42:13;16.20;99.90
8400;DHT22;4237;47.030;15.396;2022-09-01T05:44:41;16.50;99.90
8400;DHT22;4237;47.030;15.396;2022-09-01T05:47:11;17.00;99.90
8400;DHT22;4237;47.030;15.396;2022-09-01T05:49:40;17.50;99.90
8400;DHT22;4237;47.030;15.396;2022-09-01T05:52:08;17.90;99.90
8400;DHT22;4237;47.030;15.396;2022-09-01T05:54:37;18.20;99.90
8400;DHT22;4237;47.030;15.396;2022-09-01T05:57:07;18.30;99.90
8400;DHT22;4237;47.030;15.396;2022-09-01T05:59:36;18.40;99.90
8400;DHT22;4237;47.030;15.396;2022-09-01T06:02:09;18.60;99.90
8400;DHT22;4237;47.030;15.396;2022-09-01T06:04:39;18.70;99.90
8400;DHT22;4237;47.030;15.396;2022-09-01T06:07:07;19.00;99.90
8400;DHT22;4237;47.030;15.396;2022-09-01T06:09:41;19.00;99.90
8400;DHT22;4237;47.030;15.396;2022-09-01T06:12:11;18.90;99.90
8400;DHT22;4237;47.030;15.396;2022-09-01T06:14:42;18.40;99.90
8400;DHT22;4237;47.030;15.396;2022-09-01T06:17:11;18.00;99.90
8400;DHT22;4237;47.030;15.396;2022-09-01T06:19:42;17.80;99.90
8400;DHT22;4237;47.030;15.396;2022-09-01T06:22:11;18.00;99.90
8400;DHT22;4237;47.030;15.396;2022-09-01T06:24:40;17.80;99.90
8400;DHT22;4237;47.030;15.396;2022-09-01T06:27:09;18.00;99.90
8400;DHT22;4237;47.030;15.396;2022-09-01T06:29:38;18.10;99.90
8400;DHT22;4237;47.030;15.396;2022-09-01T06:32:07;18.20;99.90
8400;DHT22;4237;47.030;15.396;2022-09-01T06:34:41;18.70;99.90
8400;DHT22;4237;47.030;15.396;2022-09-01T06:37:11;18.70;99.90
8400;DHT22;4237;47.030;15.396;2022-09-01T06:39:42;19.00;99.90
8400;DHT22;4237;47.030;15.396;2022-09-01T06:42:10;19.60;99.90
8400;DHT22;4237;47.030;15.396;2022-09-01T06:44:39;20.30;99.90
8400;DHT22;4237;47.030;15.396;2022-09-01T06:47:08;21.00;99.90
8400;DHT22;4237;47.030;15.396;2022-09-01T06:49:36;21.60;99.90
8400;DHT22;4237;47.030;15.396;2022-09-01T06:52:07;22.30;99.90
8400;DHT22;4237;47.030;15.396;2022-09-01T06:54:35;22.50;99.90
8400;DHT22;4237;47.030;15.396;2022-09-01T06:57:06;22.90;99.90
8400;DHT22;4237;47.030;15.396;2022-09-01T06:59:34;23.00;99.90
8400;DHT22;4237;47.030;15.396;2022-09-01T07:02:03;23.30;99.90
8400;DHT22;4237;47.030;15.396;2022-09-01T07:04:33;23.00;99.90
8400;DHT22;4237;47.030;15.396;2022-09-01T07:07:03;23.00;99.90
8400;DHT22;4237;47.030;15.396;2022-09-01T07:09:32;22.80;99.90
8400;DHT22;4237;47.030;15.396;2022-09-01T07:12:02;24.00;99.90
8400;DHT22;4237;47.030;15.396;2022-09-01T07:14:31;26.00;99.90
8400;DHT22;4237;47.030;15.396;2022-09-01T07:17:00;27.30;99.90
8400;DHT22;4237;47.030;15.396;2022-09-01T07:19:28;27.10;99.90
8400;DHT22;4237;47.030;15.396;2022-09-01T07:21:58;27.00;99.90
8400;DHT22;4237;47.030;15.396;2022-09-01T07:24:26;26.20;99.90
8400;DHT22;4237;47.030;15.396;2022-09-01T07:26:56;26.50;99.90
8400;DHT22;4237;47.030;15.396;2022-09-01T07:29:24;27.30;99.90
8400;DHT22;4237;47.030;15.396;2022-09-01T07:31:53;27.90;99.90
8400;DHT22;4237;47.030;15.396;2022-09-01T07:34:22;28.10;99.90
8400;DHT22;4237;47.030;15.396;2022-09-01T07:36:52;28.50;99.90
8400;DHT22;4237;47.030;15.396;2022-09-01T07:39:22;29.10;99.90
8400;DHT22;4237;47.030;15.396;2022-09-01T07:41:51;30.10;99.90
8400;DHT22;4237;47.030;15.396;2022-09-01T07:44:20;30.50;99.90
8400;DHT22;4237;47.030;15.396;2022-09-01T07:46:49;31.00;99.90
8400;DHT22;4237;47.030;15.396;2022-09-01T07:49:18;30.90;99.90
8400;DHT22;4237;47.030;15.396;2022-09-01T07:51:47;29.90;99.90
8400;DHT22;4237;47.030;15.396;2022-09-01T07:54:17;29.50;99.90
8400;DHT22;4237;47.030;15.396;2022-09-01T07:56:47;29.10;99.90
8400;DHT22;4237;47.030;15.396;2022-09-01T07:59:16;28.70;99.90
8400;DHT22;4237;47.030;15.396;2022-09-01T08:01:45;28.60;99.90
8400;DHT22;4237;47.030;15.396;2022-09-01T08:04:14;28.00;99.90
8400;DHT22;4237;47.030;15.396;2022-09-01T08:06:44;27.70;99.90
8400;DHT22;4237;47.030;15.396;2022-09-01T08:09:12;28.20;99.90
8400;DHT22;4237;47.030;15.396;2022-09-01T08:11:41;28.30;99.90
8400;DHT22;4237;47.030;15.396;2022-09-01T08:14:10;29.50;99.90
8400;DHT22;4237;47.030;15.396;2022-09-01T08:16:39;30.20;99.90
8400;DHT22;4237;47.030;15.396;2022-09-01T08:19:07;30.00;98.90
8400;DHT22;4237;47.030;15.396;2022-09-01T08:21:36;29.60;99.40
8400;DHT22;4237;47.030;15.396;2022-09-01T08:24:06;29.10;99.20
8400;DHT22;4237;47.030;15.396;2022-09-01T08:26:35;29.10;99.90
8400;DHT22;4237;47.030;15.396;2022-09-01T08:29:04;28.90;99.90
8400;DHT22;4237;47.030;15.396;2022-09-01T08:31:33;28.80;99.70
8400;DHT22;4237;47.030;15.396;2022-09-01T08:34:02;29.80;99.90
8400;DHT22;4237;47.030;15.396;2022-09-01T08:36:32;30.50;96.90
8400;DHT22;4237;47.030;15.396;2022-09-01T08:39:01;30.90;98.20
8400;DHT22;4237;47.030;15.396;2022-09-01T08:47:10;30.60;93.40
8400;DHT22;4237;47.030;15.396;2022-09-01T08:49:41;30.20;95.30
8400;DHT22;4237;47.030;15.396;2022-09-01T08:52:23;30.70;98.70
8400;DHT22;4237;47.030;15.396;2022-09-01T08:54:56;32.20;97.80
8400;DHT22;4237;47.030;15.396;2022-09-01T08:57:29;34.30;94.90
8400;DHT22;4237;47.030;15.396;2022-09-01T08:59:56;35.60;92.30
8400;DHT22;4237;47.030;15.396;2022-09-01T09:18:52;38.80;83.10
8400;DHT22;4237;47.030;15.396;2022-09-01T09:21:39;40.20;80.40
8400;DHT22;4237;47.030;15.396;2022-09-01T09:24:30;40.10;77.50
8400;DHT22;4237;47.030;15.396;2022-09-01T09:27:03;39.50;75.10
8400;DHT22;4237;47.030;15.396;2022-09-01T09:29:31;36.90;80.50
8400;DHT22;4237;47.030;15.396;2022-09-01T09:32:06;34.40;81.60
8400;DHT22;4237;47.030;15.396;2022-09-01T09:34:42;32.70;92.10
8400;DHT22;4237;47.030;15.396;2022-09-01T09:40:15;32.80;91.00
8400;DHT22;4237;47.030;15.396;2022-09-01T09:45:30;30.60;94.50
8400;DHT22;4237;47.030;15.396;2022-09-01T09:48:08;31.90;94.30
8400;DHT22;4237;47.030;15.396;2022-09-01T09:50:39;32.80;90.40
8400;DHT22;4237;47.030;15.396;2022-09-01T09:56:08;34.00;91.80
8400;DHT22;4237;47.030;15.396;2022-09-01T09:58:36;33.00;91.80
8400;DHT22;4237;47.030;15.396;2022-09-01T10:01:09;33.50;92.80
8400;DHT22;4237;47.030;15.396;2022-09-01T10:03:44;33.50;87.90
8400;DHT22;4237;47.030;15.396;2022-09-01T10:06:35;32.50;90.80
8400;DHT22;4237;47.030;15.396;2022-09-01T10:09:07;31.70;91.60
8400;DHT22;4237;47.030;15.396;2022-09-01T10:11:39;30.60;92.50
8400;DHT22;4237;47.030;15.396;2022-09-01T10:14:16;29.50;96.20
8400;DHT22;4237;47.030;15.396;2022-09-01T10:16:43;29.10;94.60
8400;DHT22;4237;47.030;15.396;2022-09-01T10:19:13;28.50;95.90
8400;DHT22;4237;47.030;15.396;2022-09-01T10:21:43;31.50;94.90
8400;DHT22;4237;47.030;15.396;2022-09-01T10:24:18;31.00;92.30
8400;DHT22;4237;47.030;15.396;2022-09-01T10:26:50;29.60;94.50
8400;DHT22;4237;47.030;15.396;2022-09-01T10:29:30;28.20;97.30
8400;DHT22;4237;47.030;15.396;2022-09-01T10:32:01;27.30;99.70
8400;DHT22;4237;47.030;15.396;2022-09-01T10:34:35;26.90;99.90
8400;DHT22;4237;47.030;15.396;2022-09-01T10:37:06;26.80;99.90
8400;DHT22;4237;47.030;15.396;2022-09-01T10:40:33;26.50;99.90
8400;DHT22;4237;47.030;15.396;2022-09-01T10:42:15;26.60;99.90
8400;DHT22;4237;47.030;15.396;2022-09-01T10:44:57;26.30;99.90
8400;DHT22;4237;47.030;15.396;2022-09-01T10:47:30;26.40;99.80
8400;DHT22;4237;47.030;15.396;2022-09-01T10:50:04;26.00;99.90
8400;DHT22;4237;47.030;15.396;2022-09-01T11:06:01;26.90;99.80
8400;DHT22;4237;47.030;15.396;2022-09-01T11:11:09;24.90;99.90
8400;DHT22;4237;47.030;15.396;2022-09-01T11:13:47;24.40;99.90
8400;DHT22;4237;47.030;15.396;2022-09-01T11:19:31;24.00;99.90
8400;DHT22;4237;47.030;15.396;2022-09-01T11:24:44;23.00;99.90
8400;DHT22;4237;47.030;15.396;2022-09-01T11:30:07;22.10;99.90
8400;DHT22;4237;47.030;15.396;2022-09-01T11:32:37;22.00;99.90
8400;DHT22;4237;47.030;15.396;2022-09-01T11:35:18;21.40;99.90
8400;DHT22;4237;47.030;15.396;2022-09-01T11:37:51;20.90;99.90
8400;DHT22;4237;47.030;15.396;2022-09-01T11:40:26;20.80;99.90
8400;DHT22;4237;47.030;15.396;2022-09-01T11:42:56;20.60;99.90
8400;DHT22;4237;47.030;15.396;2022-09-01T11:45:30;20.80;99.90
8400;DHT22;4237;47.030;15.396;2022-09-01T11:48:08;20.80;99.90
8400;DHT22;4237;47.030;15.396;2022-09-01T11:50:35;20.90;99.90
8400;DHT22;4237;47.030;15.396;2022-09-01T11:53:19;20.90;99.90
8400;DHT22;4237;47.030;15.396;2022-09-01T11:55:47;21.00;99.90
8400;DHT22;4237;47.030;15.396;2022-09-01T11:58:33;21.00;99.90
8400;DHT22;4237;47.030;15.396;2022-09-01T12:01:29;21.10;99.90
8400;DHT22;4237;47.030;15.396;2022-09-01T12:03:52;21.20;99.90
8400;DHT22;4237;47.030;15.396;2022-09-01T12:06:26;21.20;99.90
8400;DHT22;4237;47.030;15.396;2022-09-01T12:08:58;21.10;99.90
8400;DHT22;4237;47.030;15.396;2022-09-01T12:11:31;21.30;99.90
8400;DHT22;4237;47.030;15.396;2022-09-01T12:16:33;21.40;99.90
8400;DHT22;4237;47.030;15.396;2022-09-01T12:19:04;21.40;99.90
8400;DHT22;4237;47.030;15.396;2022-09-01T12:21:41;21.40;99.90
8400;DHT22;4237;47.030;15.396;2022-09-01T12:24:19;21.30;99.90
8400;DHT22;4237;47.030;15.396;2022-09-01T12:26:50;21.60;99.90
8400;DHT22;4237;47.030;15.396;2022-09-01T12:29:25;21.90;99.90
8400;DHT22;4237;47.030;15.396;2022-09-01T12:31:54;21.90;99.90
8400;DHT22;4237;47.030;15.396;2022-09-01T12:39:46;24.70;99.90
8400;DHT22;4237;47.030;15.396;2022-09-01T12:45:02;25.80;99.90
8400;DHT22;4237;47.030;15.396;2022-09-01T12:52:54;25.70;99.90
8400;DHT22;4237;47.030;15.396;2022-09-01T12:55:21;24.50;99.90
8400;DHT22;4237;47.030;15.396;2022-09-01T12:57:56;24.00;99.90
8400;DHT22;4237;47.030;15.396;2022-09-01T13:00:30;23.60;99.90
8400;DHT22;4237;47.030;15.396;2022-09-01T13:03:10;23.20;99.90
8400;DHT22;4237;47.030;15.396;2022-09-01T13:05:41;22.90;99.90
8400;DHT22;4237;47.030;15.396;2022-09-01T13:08:21;22.60;99.90
8400;DHT22;4237;47.030;15.396;2022-09-01T13:11:06;22.50;99.90
8400;DHT22;4237;47.030;15.396;2022-09-01T13:13:35;22.50;99.90
8400;DHT22;4237;47.030;15.396;2022-09-01T13:16:04;22.40;99.90
8400;DHT22;4237;47.030;15.396;2022-09-01T13:18:41;22.20;99.90
8400;DHT22;4237;47.030;15.396;2022-09-01T13:21:11;22.00;99.90
8400;DHT22;4237;47.030;15.396;2022-09-01T13:23:40;21.80;99.90
8400;DHT22;4237;47.030;15.396;2022-09-01T13:26:09;21.80;99.90
8400;DHT22;4237;47.030;15.396;2022-09-01T13:28:38;21.80;99.90
8400;DHT22;4237;47.030;15.396;2022-09-01T13:31:06;21.80;99.90
8400;DHT22;4237;47.030;15.396;2022-09-01T13:33:35;21.90;99.90
8400;DHT22;4237;47.030;15.396;2022-09-01T13:36:04;21.80;99.90
8400;DHT22;4237;47.030;15.396;2022-09-01T13:38:33;21.90;99.90
8400;DHT22;4237;47.030;15.396;2022-09-01T13:41:02;21.80;99.90
8400;DHT22;4237;47.030;15.396;2022-09-01T13:43:31;21.60;99.90
8400;DHT22;4237;47.030;15.396;2022-09-01T13:46:01;21.40;99.90
8400;DHT22;4237;47.030;15.396;2022-09-01T13:48:29;21.30;99.90
8400;DHT22;4237;47.030;15.396;2022-09-01T13:50:59;21.20;99.90
8400;DHT22;4237;47.030;15.396;2022-09-01T13:53:28;21.20;99.90
8400;DHT22;4237;47.030;15.396;2022-09-01T13:55:57;21.20;99.90
8400;DHT22;4237;47.030;15.396;2022-09-01T13:58:26;21.00;99.90
8400;DHT22;4237;47.030;15.396;2022-09-01T14:00:55;21.20;99.90
8400;DHT22;4237;47.030;15.396;2022-09-01T14:03:25;21.40;99.90
8400;DHT22;4237;47.030;15.396;2022-09-01T14:05:54;21.50;99.90
8400;DHT22;4237;47.030;15.396;2022-09-01T14:08:23;21.50;99.90
8400;DHT22;4237;47.030;15.396;2022-09-01T14:10:52;21.40;99.90
8400;DHT22;4237;47.030;15.396;2022-09-01T14:13:23;21.00;99.90
8400;DHT22;4237;47.030;15.396;2022-09-01T14:15:52;20.80;99.90
8400;DHT22;4237;47.030;15.396;2022-09-01T14:18:22;20.60;99.90
8400;DHT22;4237;47.030;15.396;2022-09-01T14:20:51;20.60;99.90
8400;DHT22;4237;47.030;15.396;2022-09-01T14:23:21;20.40;99.90
8400;DHT22;4237;47.030;15.396;2022-09-01T14:25:50;20.40;99.90
8400;DHT22;4237;47.030;15.396;2022-09-01T14:28:21;20.40;99.90
8400;DHT22;4237;47.030;15.396;2022-09-01T14:30:51;20.30;99.90
8400;DHT22;4237;47.030;15.396;2022-09-01T14:33:20;20.30;99.90
8400;DHT22;4237;47.030;15.396;2022-09-01T14:35:50;20.30;99.90
8400;DHT22;4237;47.030;15.396;2022-09-01T14:38:19;20.30;99.90
8400;DHT22;4237;47.030;15.396;2022-09-01T14:40:48;20.30;99.90
8400;DHT22;4237;47.030;15.396;2022-09-01T14:43:18;20.30;99.90
8400;DHT22;4237;47.030;15.396;2022-09-01T14:45:49;20.40;99.90
8400;DHT22;4237;47.030;15.396;2022-09-01T14:48:19;20.30;99.90
8400;DHT22;4237;47.030;15.396;2022-09-01T14:50:48;20.30;99.90
8400;DHT22;4237;47.030;15.396;2022-09-01T14:53:17;20.30;99.90
8400;DHT22;4237;47.030;15.396;2022-09-01T14:55:46;20.30;99.90
8400;DHT22;4237;47.030;15.396;2022-09-01T14:58:14;20.30;99.90
8400;DHT22;4237;47.030;15.396;2022-09-01T15:00:43;20.20;99.90
8400;DHT22;4237;47.030;15.396;2022-09-01T15:03:12;20.20;99.90
8400;DHT22;4237;47.030;15.396;2022-09-01T15:05:40;20.10;99.90
8400;DHT22;4237;47.030;15.396;2022-09-01T15:08:10;20.00;99.90
8400;DHT22;4237;47.030;15.396;2022-09-01T15:10:39;20.00;99.90
8400;DHT22;4237;47.030;15.396;2022-09-01T15:13:07;19.90;99.90
8400;DHT22;4237;47.030;15.396;2022-09-01T15:15:38;19.90;99.90
8400;DHT22;4237;47.030;15.396;2022-09-01T15:18:06;19.90;99.90
8400;DHT22;4237;47.030;15.396;2022-09-01T15:20:44;19.90;99.90
8400;DHT22;4237;47.030;15.396;2022-09-01T15:25:45;19.70;99.90
8400;DHT22;4237;47.030;15.396;2022-09-01T15:28:14;19.70;99.90
8400;DHT22;4237;47.030;15.396;2022-09-01T15:30:43;19.80;99.90
8400;DHT22;4237;47.030;15.396;2022-09-01T15:33:13;19.90;99.90
8400;DHT22;4237;47.030;15.396;2022-09-01T15:35:43;19.90;99.90
8400;DHT22;4237;47.030;15.396;2022-09-01T15:38:14;19.90;99.90
8400;DHT22;4237;47.030;15.396;2022-09-01T15:40:43;19.90;99.90
8400;DHT22;4237;47.030;15.396;2022-09-01T15:43:12;19.90;99.90
8400;DHT22;4237;47.030;15.396;2022-09-01T15:45:41;20.00;99.90
8400;DHT22;4237;47.030;15.396;2022-09-01T15:48:10;20.00;99.90
8400;DHT22;4237;47.030;15.396;2022-09-01T15:50:39;20.10;99.90
8400;DHT22;4237;47.030;15.396;2022-09-01T15:53:08;20.30;99.90
8400;DHT22;4237;47.030;15.396;2022-09-01T15:55:43;20.00;99.90
8400;DHT22;4237;47.030;15.396;2022-09-01T15:58:15;20.00;99.90
8400;DHT22;4237;47.030;15.396;2022-09-01T16:00:45;20.00;99.90
8400;DHT22;4237;47.030;15.396;2022-09-01T16:03:13;20.10;99.90
8400;DHT22;4237;47.030;15.396;2022-09-01T16:05:43;20.10;99.90
8400;DHT22;4237;47.030;15.396;2022-09-01T16:08:11;20.10;99.90
8400;DHT22;4237;47.030;15.396;2022-09-01T16:10:40;20.10;99.90
8400;DHT22;4237;47.030;15.396;2022-09-01T16:13:09;20.00;99.90
8400;DHT22;4237;47.030;15.396;2022-09-01T16:15:43;20.00;99.90
8400;DHT22;4237;47.030;15.396;2022-09-01T16:18:24;20.00;99.90
8400;DHT22;4237;47.030;15.396;2022-09-01T16:20:58;19.90;99.90
8400;DHT22;4237;47.030;15.396;2022-09-01T16:23:32;20.00;99.90
8400;DHT22;4237;47.030;15.396;2022-09-01T16:25:58;20.00;99.90
8400;DHT22;4237;47.030;15.396;2022-09-01T16:28:30;19.90;99.90
8400;DHT22;4237;47.030;15.396;2022-09-01T16:33:50;19.80;99.90
8400;DHT22;4237;47.030;15.396;2022-09-01T16:45:04;19.60;99.90
8400;DHT22;4237;47.030;15.396;2022-09-01T16:50:50;19.50;99.90
8400;DHT22;4237;47.030;15.396;2022-09-01T16:58:52;19.30;99.90
8400;DHT22;4237;47.030;15.396;2022-09-01T17:01:47;19.30;99.90
8400;DHT22;4237;47.030;15.396;2022-09-01T17:04:18;19.20;99.90
8400;DHT22;4237;47.030;15.396;2022-09-01T17:15:15;18.90;99.90
8400;DHT22;4237;47.030;15.396;2022-09-01T17:20:17;18.80;99.90
8400;DHT22;4237;47.030;15.396;2022-09-01T17:22:51;18.70;99.90
8400;DHT22;4237;47.030;15.396;2022-09-01T17:28:18;18.60;99.90
8400;DHT22;4237;47.030;15.396;2022-09-01T17:30:35;18.60;99.90
8400;DHT22;4237;47.030;15.396;2022-09-01T17:33:29;18.50;99.90
8400;DHT22;4237;47.030;15.396;2022-09-01T17:38:44;18.40;99.90
8400;DHT22;4237;47.030;15.396;2022-09-01T17:41:30;18.40;99.90
8400;DHT22;4237;47.030;15.396;2022-09-01T17:44:19;18.30;99.90
8400;DHT22;4237;47.030;15.396;2022-09-01T17:46:54;18.30;99.90
8400;DHT22;4237;47.030;15.396;2022-09-01T17:49:27;18.20;99.90
8400;DHT22;4237;47.030;15.396;2022-09-01T17:55:15;18.20;99.90
8400;DHT22;4237;47.030;15.396;2022-09-01T17:57:46;18.20;99.90
8400;DHT22;4237;47.030;15.396;2022-09-01T18:00:28;18.10;99.90
8400;DHT22;4237;47.030;15.396;2022-09-01T18:05:57;18.00;99.90
8400;DHT22;4237;47.030;15.396;2022-09-01T18:08:30;18.00;99.90
8400;DHT22;4237;47.030;15.396;2022-09-01T18:11:06;17.90;99.90